Terminal Aerodrome Forecast
Issued by NWS Cleveland, OH

Home | Current Version | Previous Version | Graphics & Text | Print | Product List | Glossary Off
Versions: 1 2 3 4 5 6 7 8 9 10 11 12 13 14 15 16 17 18 19 20 21 22 23 24 25 26 27 28 29 30 31

000
FTUS41 KCLE 111133
TAFCLE
TAF
KCLE 111133Z 1112/1218 16006KT 2SM -SN OVC025
      TEMPO 1113/1116 4SM -SN OVC035
     FM111700 17010G18KT 1 1/2SM -SN OVC015
     FM112300 16014G24KT 1SM -SN OVC008
     FM120400 20012KT 3SM -RASN OVC005=

USA.gov is the U.S. government's official web portal to all federal, state and local government web resources and services.